Dew Point Data


Current

Temp 10.0 F. Dew Point 7.0 F.


Dew Point Comfort Scale

dewpoints

Date, Time Temperature Dew Point
Fri Jan 7 10:08:04 2022 14.0 F. 3.0 F.
Fri Jan 7 11:08:04 2022 14.0 F. 3.0 F.
Fri Jan 7 12:08:04 2022 16.0 F. 3.9 F.
Fri Jan 7 13:08:04 2022 18.0 F. 7.0 F.
Fri Jan 7 14:08:05 2022 19.0 F. 7.0 F.
Fri Jan 7 15:08:04 2022 20.0 F. 5.0 F.
Fri Jan 7 16:08:05 2022 22.0 F. 7.0 F.
Fri Jan 7 17:08:05 2022 20.0 F. 7.0 F.
Fri Jan 7 18:08:05 2022 20.0 F. 7.0 F.
Fri Jan 7 19:08:05 2022 20.0 F. 7.0 F.
Fri Jan 7 20:08:04 2022 18.0 F. 9.0 F.
Fri Jan 7 21:08:04 2022 16.0 F. 9.0 F.
Fri Jan 7 22:08:04 2022 16.0 F. 9.0 F.
Fri Jan 7 23:08:04 2022 15.0 F. 8.1 F.
Sat Jan 8 00:08:05 2022 15.0 F. 8.1 F.
Sat Jan 8 01:08:05 2022 16.0 F. 9.0 F.
Sat Jan 8 02:08:04 2022 16.0 F. 8.1 F.
Sat Jan 8 03:08:04 2022 16.0 F. 8.1 F.
Sat Jan 8 04:08:05 2022 15.0 F. 8.1 F.
Sat Jan 8 05:08:05 2022 17.0 F. 9.0 F.
Sat Jan 8 06:08:05 2022 19.0 F. 10.9 F.
Sat Jan 8 07:08:05 2022 24.0 F. 15.1 F.
Sat Jan 8 08:08:04 2022 24.0 F. 15.1 F.
Sat Jan 8 09:08:05 2022 27.0 F. 18.0 F.
Sat Jan 8 10:08:04 2022 29.0 F. 21.0 F.
Sat Jan 8 11:08:05 2022 33.0 F. 24.1 F.
Sat Jan 8 12:08:05 2022 33.0 F. 24.1 F.
Sat Jan 8 13:08:04 2022 36.0 F. 28.9 F.
Sat Jan 8 14:08:05 2022 36.0 F. 28.9 F.
Sat Jan 8 15:08:04 2022 39.0 F. 30.0 F.
Sat Jan 8 16:08:05 2022 36.0 F. 34.0 F.
Sat Jan 8 17:08:05 2022 37.0 F. 35.1 F.
Sat Jan 8 18:08:05 2022 37.0 F. 35.1 F.
Sat Jan 8 19:08:04 2022 39.0 F. 37.0 F.
Sat Jan 8 20:08:04 2022 42.0 F. 39.9 F.
Sat Jan 8 21:08:04 2022 45.0 F. 41.0 F.
Sat Jan 8 22:08:05 2022 45.0 F. 41.0 F.
Sat Jan 8 23:08:04 2022 45.0 F. 42.1 F.
Sun Jan 9 00:08:05 2022 45.0 F. 43.0 F.
Sun Jan 9 01:08:04 2022 45.0 F. 44.1 F.
Sun Jan 9 02:08:05 2022 46.0 F. 45.0 F.
Sun Jan 9 03:08:05 2022 48.0 F. 46.0 F.
Sun Jan 9 04:08:05 2022 47.0 F. 46.0 F.
Sun Jan 9 05:08:05 2022 46.0 F. 46.0 F.
Sun Jan 9 06:08:05 2022 46.0 F. 45.0 F.
Sun Jan 9 07:08:05 2022 46.0 F. 45.0 F.
Sun Jan 9 08:08:04 2022 40.0 F. 37.9 F.
Sun Jan 9 09:08:05 2022 38.0 F. 34.0 F.
Sun Jan 9 10:08:04 2022 38.0 F. 34.0 F.
Sun Jan 9 11:08:05 2022 38.0 F. 30.9 F.
Sun Jan 9 12:08:04 2022 38.0 F. 30.9 F.
Sun Jan 9 13:08:05 2022 40.0 F. 28.9 F.
Sun Jan 9 14:08:05 2022 36.0 F. 23.0 F.
Sun Jan 9 15:08:05 2022 34.0 F. 21.0 F.
Sun Jan 9 16:08:04 2022 34.0 F. 21.0 F.
Sun Jan 9 17:08:04 2022 30.0 F. 17.1 F.
Sun Jan 9 18:08:06 2022 30.0 F. 17.1 F.
Sun Jan 9 19:08:05 2022 29.0 F. 15.1 F.
Sun Jan 9 20:08:05 2022 27.0 F. 12.0 F.
Sun Jan 9 21:08:05 2022 25.0 F. 14.0 F.
Sun Jan 9 22:08:04 2022 24.0 F. 14.0 F.
Sun Jan 9 23:08:05 2022 23.0 F. 14.0 F.
Mon Jan 10 00:08:05 2022 23.0 F. 14.0 F.
Mon Jan 10 01:08:05 2022 20.0 F. 14.0 F.
Mon Jan 10 02:08:05 2022 20.0 F. 14.0 F.
Mon Jan 10 03:08:05 2022 19.0 F. 14.0 F.
Mon Jan 10 04:08:05 2022 19.0 F. 15.1 F.
Mon Jan 10 05:08:05 2022 19.0 F. 12.0 F.
Mon Jan 10 06:08:04 2022 19.0 F. 12.0 F.
Mon Jan 10 07:08:05 2022 19.0 F. 12.0 F.
Mon Jan 10 08:08:05 2022 19.0 F. 14.0 F.
Mon Jan 10 09:08:05 2022 22.0 F. 15.1 F.
Mon Jan 10 10:08:04 2022 22.0 F. 15.1 F.
Mon Jan 10 11:08:05 2022 27.0 F. 12.9 F.
Mon Jan 10 12:08:04 2022 33.0 F. 12.9 F.
Mon Jan 10 13:08:06 2022 38.0 F. 16.0 F.
Mon Jan 10 14:08:05 2022 40.0 F. 17.1 F.
Mon Jan 10 15:08:04 2022 40.0 F. 17.1 F.
Mon Jan 10 16:08:05 2022 40.0 F. 21.0 F.
Mon Jan 10 17:08:04 2022 40.0 F. 21.0 F.
Mon Jan 10 18:08:04 2022 33.0 F. 21.0 F.
Mon Jan 10 19:08:04 2022 33.0 F. 21.0 F.
Mon Jan 10 20:08:04 2022 32.0 F. 19.9 F.
Mon Jan 10 21:08:05 2022 29.0 F. 19.9 F.
Mon Jan 10 22:08:05 2022 29.0 F. 19.9 F.
Mon Jan 10 23:08:04 2022 27.0 F. 19.0 F.
Tue Jan 11 00:08:05 2022 25.0 F. 19.0 F.
Tue Jan 11 01:08:05 2022 25.0 F. 17.1 F.
Tue Jan 11 02:08:04 2022 24.0 F. 17.1 F.
Tue Jan 11 03:08:04 2022 22.0 F. 17.1 F.
Tue Jan 11 04:08:04 2022 23.0 F. 16.0 F.
Tue Jan 11 05:08:04 2022 21.0 F. 16.0 F.
Tue Jan 11 06:08:05 2022 21.0 F. 16.0 F.
Tue Jan 11 07:08:05 2022 21.0 F. 16.0 F.
Tue Jan 11 08:08:04 2022 22.0 F. 18.0 F.
Tue Jan 11 09:08:05 2022 25.0 F. 18.0 F.
Tue Jan 11 10:08:05 2022 25.0 F. 18.0 F.
Tue Jan 11 11:08:05 2022 34.0 F. 21.0 F.
Tue Jan 11 12:08:04 2022 34.0 F. 21.0 F.
Tue Jan 11 13:08:04 2022 40.0 F. 24.1 F.
Tue Jan 11 14:08:04 2022 40.0 F. 24.1 F.
Tue Jan 11 15:08:05 2022 41.0 F. 25.0 F.
Tue Jan 11 16:08:05 2022 42.0 F. 26.1 F.
Tue Jan 11 17:08:04 2022 38.0 F. 27.0 F.
Tue Jan 11 18:08:05 2022 38.0 F. 27.0 F.
Tue Jan 11 19:08:05 2022 37.0 F. 28.0 F.
Tue Jan 11 20:08:05 2022 37.0 F. 28.0 F.
Tue Jan 11 21:08:05 2022 37.0 F. 28.0 F.
Tue Jan 11 22:08:04 2022 39.0 F. 28.0 F.
Tue Jan 11 23:08:05 2022 39.0 F. 27.0 F.
Wed Jan 12 00:08:05 2022 39.0 F. 27.0 F.
Wed Jan 12 01:08:05 2022 38.0 F. 28.0 F.
Wed Jan 12 02:08:04 2022 38.0 F. 28.0 F.
Wed Jan 12 03:08:05 2022 37.0 F. 28.9 F.
Wed Jan 12 04:08:04 2022 36.0 F. 28.9 F.
Wed Jan 12 05:08:05 2022 36.0 F. 28.9 F.
Wed Jan 12 06:08:04 2022 36.0 F. 28.9 F.
Wed Jan 12 07:08:05 2022 35.0 F. 28.9 F.
Wed Jan 12 08:08:05 2022 35.0 F. 28.9 F.
Wed Jan 12 09:08:05 2022 35.0 F. 28.9 F.
Wed Jan 12 10:08:05 2022 39.0 F. 30.0 F.
Wed Jan 12 11:08:05 2022 47.0 F. 32.0 F.
Wed Jan 12 12:08:04 2022 50.0 F. 32.0 F.
Wed Jan 12 13:08:05 2022 52.0 F. 33.1 F.
Wed Jan 12 14:08:05 2022 52.0 F. 34.0 F.
Wed Jan 12 15:08:04 2022 54.0 F. 34.0 F.
Wed Jan 12 16:08:05 2022 54.0 F. 34.0 F.
Wed Jan 12 17:08:04 2022 48.0 F. 35.1 F.
Wed Jan 12 18:08:04 2022 48.0 F. 35.1 F.
Wed Jan 12 19:08:05 2022 42.0 F. 35.1 F.
Wed Jan 12 20:08:05 2022 42.0 F. 35.1 F.
Wed Jan 12 21:08:04 2022 42.0 F. 34.0 F.
Wed Jan 12 22:08:05 2022 40.0 F. 34.0 F.
Wed Jan 12 23:08:04 2022 40.0 F. 33.1 F.
Thu Jan 13 00:08:05 2022 41.0 F. 34.0 F.
Thu Jan 13 01:08:05 2022 41.0 F. 34.0 F.
Thu Jan 13 02:08:04 2022 39.0 F. 34.0 F.
Thu Jan 13 03:08:04 2022 39.0 F. 32.0 F.
Thu Jan 13 04:08:05 2022 39.0 F. 32.0 F.
Thu Jan 13 05:08:04 2022 39.0 F. 32.0 F.
Thu Jan 13 06:08:05 2022 35.0 F. 30.0 F.
Thu Jan 13 07:08:05 2022 36.0 F. 30.0 F.
Thu Jan 13 08:08:04 2022 36.0 F. 30.0 F.
Thu Jan 13 09:08:05 2022 41.0 F. 33.1 F.
Thu Jan 13 10:08:04 2022 41.0 F. 33.1 F.
Thu Jan 13 11:08:05 2022 41.0 F. 35.1 F.
Thu Jan 13 12:08:04 2022 41.0 F. 35.1 F.
Thu Jan 13 13:08:05 2022 44.0 F. 37.0 F.
Thu Jan 13 14:08:04 2022 50.0 F. 37.0 F.
Thu Jan 13 15:08:04 2022 51.0 F. 36.0 F.
Thu Jan 13 16:08:05 2022 50.0 F. 35.1 F.
Thu Jan 13 17:08:04 2022 46.0 F. 34.0 F.
Thu Jan 13 18:08:05 2022 43.0 F. 33.1 F.
Thu Jan 13 19:08:04 2022 43.0 F. 33.1 F.
Thu Jan 13 20:08:04 2022 40.0 F. 32.0 F.
Thu Jan 13 21:08:04 2022 31.0 F. 28.9 F.
Thu Jan 13 22:08:04 2022 31.0 F. 28.9 F.
Thu Jan 13 23:08:05 2022 31.0 F. 30.0 F.
Fri Jan 14 00:08:04 2022 27.0 F. 26.1 F.
Fri Jan 14 01:08:05 2022 27.0 F. 27.0 F.
Fri Jan 14 02:08:04 2022 28.0 F. 26.1 F.
Fri Jan 14 03:08:05 2022 28.0 F. 26.1 F.
Fri Jan 14 04:08:04 2022 28.0 F. 26.1 F.
Fri Jan 14 05:08:04 2022 27.0 F. 27.0 F.
Fri Jan 14 06:08:24 2022 27.0 F. 27.0 F.
Fri Jan 14 07:08:05 2022 28.0 F. 27.0 F.
Fri Jan 14 08:08:04 2022 28.0 F. 28.0 F.
Fri Jan 14 09:08:05 2022 32.0 F. 30.9 F.
Fri Jan 14 10:08:04 2022 32.0 F. 30.9 F.
Fri Jan 14 11:08:05 2022 34.0 F. 32.0 F.
Fri Jan 14 12:08:04 2022 34.0 F. 33.1 F.
Fri Jan 14 13:08:05 2022 36.0 F. 34.0 F.
Fri Jan 14 14:08:04 2022 40.0 F. 35.1 F.
Fri Jan 14 15:08:05 2022 41.0 F. 35.1 F.
Fri Jan 14 16:08:05 2022 39.0 F. 35.1 F.
Fri Jan 14 17:08:04 2022 39.0 F. 35.1 F.
Fri Jan 14 18:08:04 2022 36.0 F. 34.0 F.
Fri Jan 14 19:08:04 2022 36.0 F. 34.0 F.
Fri Jan 14 20:08:04 2022 36.0 F. 34.0 F.
Fri Jan 14 21:08:05 2022 36.0 F. 34.0 F.
Fri Jan 14 22:08:04 2022 36.0 F. 34.0 F.
Fri Jan 14 23:08:05 2022 36.0 F. 35.1 F.
Sat Jan 15 00:08:05 2022 36.0 F. 35.1 F.
Sat Jan 15 01:08:04 2022 35.0 F. 34.0 F.
Sat Jan 15 02:08:04 2022 35.0 F. 34.0 F.
Sat Jan 15 03:08:04 2022 35.0 F. 34.0 F.
Sat Jan 15 04:08:05 2022 35.0 F. 34.0 F.
Sat Jan 15 05:08:04 2022 35.0 F. 34.0 F.
Sat Jan 15 06:08:04 2022 35.0 F. 34.0 F.
Sat Jan 15 07:08:05 2022 35.0 F. 33.1 F.
Sat Jan 15 08:08:04 2022 34.0 F. 33.1 F.
Sat Jan 15 09:08:05 2022 33.0 F. 32.0 F.
Sat Jan 15 10:08:04 2022 33.0 F. 32.0 F.
Sat Jan 15 11:08:10 2022 35.0 F. 33.1 F.
Sat Jan 15 12:08:04 2022 37.0 F. 35.1 F.
Sat Jan 15 13:08:05 2022 37.0 F. 35.1 F.
Sat Jan 15 14:08:04 2022 39.0 F. 33.1 F.
Sat Jan 15 15:08:05 2022 39.0 F. 33.1 F.
Sat Jan 15 16:08:04 2022 38.0 F. 32.0 F.
Sat Jan 15 17:08:05 2022 37.0 F. 30.0 F.
Sat Jan 15 18:08:05 2022 37.0 F. 30.0 F.
Sat Jan 15 19:08:06 2022 36.0 F. 28.9 F.
Sat Jan 15 20:08:04 2022 35.0 F. 28.9 F.
Sat Jan 15 21:08:04 2022 33.0 F. 27.0 F.
Sat Jan 15 22:08:05 2022 32.0 F. 26.1 F.
Sat Jan 15 23:08:05 2022 31.0 F. 25.0 F.
Sun Jan 16 00:08:04 2022 29.0 F. 23.0 F.
Sun Jan 16 01:08:04 2022 28.0 F. 23.0 F.
Sun Jan 16 02:08:05 2022 27.0 F. 21.9 F.
Sun Jan 16 03:08:04 2022 26.0 F. 21.9 F.
Sun Jan 16 04:08:05 2022 26.0 F. 21.9 F.
Sun Jan 16 05:08:05 2022 25.0 F. 21.0 F.
Sun Jan 16 06:08:05 2022 24.0 F. 19.9 F.
Sun Jan 16 07:08:04 2022 24.0 F. 19.9 F.
Sun Jan 16 08:08:05 2022 24.0 F. 21.0 F.
Sun Jan 16 09:08:06 2022 24.0 F. 21.0 F.
Sun Jan 16 10:08:06 2022 25.0 F. 21.0 F.
Sun Jan 16 11:08:04 2022 27.0 F. 21.9 F.
Sun Jan 16 12:08:05 2022 32.0 F. 24.1 F.
Sun Jan 16 13:08:04 2022 33.0 F. 25.0 F.
Sun Jan 16 14:08:04 2022 34.0 F. 23.0 F.
Sun Jan 16 15:08:05 2022 34.0 F. 19.9 F.
Sun Jan 16 16:08:05 2022 34.0 F. 19.9 F.
Sun Jan 16 17:08:04 2022 34.0 F. 19.0 F.
Sun Jan 16 18:08:04 2022 32.0 F. 18.0 F.
Sun Jan 16 19:08:05 2022 31.0 F. 21.0 F.
Sun Jan 16 20:08:04 2022 31.0 F. 21.0 F.
Sun Jan 16 21:08:04 2022 31.0 F. 21.9 F.
Sun Jan 16 22:08:05 2022 31.0 F. 23.0 F.
Sun Jan 16 23:08:05 2022 32.0 F. 25.0 F.
Mon Jan 17 00:08:04 2022 30.0 F. 27.0 F.
Mon Jan 17 01:08:04 2022 30.0 F. 26.1 F.
Mon Jan 17 02:08:04 2022 30.0 F. 25.0 F.
Mon Jan 17 03:08:04 2022 31.0 F. 26.1 F.
Mon Jan 17 04:08:04 2022 31.0 F. 27.0 F.
Mon Jan 17 05:08:04 2022 32.0 F. 27.0 F.
Mon Jan 17 06:08:05 2022 32.0 F. 27.0 F.
Mon Jan 17 07:08:04 2022 32.0 F. 27.0 F.
Mon Jan 17 08:08:06 2022 32.0 F. 27.0 F.
Mon Jan 17 09:08:05 2022 32.0 F. 27.0 F.
Mon Jan 17 10:08:06 2022 32.0 F. 25.0 F.
Mon Jan 17 11:08:05 2022 34.0 F. 26.1 F.
Mon Jan 17 12:08:13 2022 36.0 F. 27.0 F.
Mon Jan 17 13:08:04 2022 36.0 F. 27.0 F.
Mon Jan 17 14:08:05 2022 38.0 F. 28.0 F.
Mon Jan 17 15:08:07 2022 41.0 F. 24.1 F.
Mon Jan 17 16:08:04 2022 41.0 F. 24.1 F.
Mon Jan 17 17:08:04 2022 41.0 F. 24.1 F.
Mon Jan 17 18:08:05 2022 36.0 F. 24.1 F.
Mon Jan 17 19:08:04 2022 35.0 F. 24.1 F.
Mon Jan 17 20:08:04 2022 35.0 F. 24.1 F.
Mon Jan 17 21:08:04 2022 30.0 F. 24.1 F.
Mon Jan 17 22:08:04 2022 27.0 F. 24.1 F.
Mon Jan 17 23:08:05 2022 27.0 F. 24.1 F.
Tue Jan 18 00:08:05 2022 26.0 F. 24.1 F.
Tue Jan 18 01:08:05 2022 27.0 F. 24.1 F.
Tue Jan 18 02:08:05 2022 26.0 F. 24.1 F.
Tue Jan 18 03:08:05 2022 24.0 F. 23.0 F.
Tue Jan 18 04:08:05 2022 26.0 F. 24.1 F.
Tue Jan 18 05:08:04 2022 26.0 F. 24.1 F.
Tue Jan 18 06:08:04 2022 24.0 F. 21.9 F.
Tue Jan 18 07:08:05 2022 23.0 F. 21.9 F.
Tue Jan 18 08:08:05 2022 29.0 F. 25.0 F.
Tue Jan 18 09:08:05 2022 29.0 F. 25.0 F.
Tue Jan 18 10:08:04 2022 36.0 F. 30.9 F.
Tue Jan 18 11:08:16 2022 36.0 F. 30.9 F.
Tue Jan 18 12:08:05 2022 36.0 F. 30.9 F.
Tue Jan 18 13:08:04 2022 36.0 F. 30.9 F.
Tue Jan 18 14:08:05 2022 51.0 F. 34.0 F.
Tue Jan 18 15:08:05 2022 51.0 F. 34.0 F.
Tue Jan 18 16:08:04 2022 51.0 F. 36.0 F.
Tue Jan 18 17:08:05 2022 51.0 F. 36.0 F.
Tue Jan 18 18:08:04 2022 48.0 F. 36.0 F.
Tue Jan 18 19:08:04 2022 48.0 F. 37.0 F.
Tue Jan 18 20:08:04 2022 48.0 F. 37.0 F.
Tue Jan 18 21:08:04 2022 48.0 F. 36.0 F.
Tue Jan 18 22:08:04 2022 47.0 F. 35.1 F.
Tue Jan 18 23:08:04 2022 47.0 F. 35.1 F.
Wed Jan 19 00:08:04 2022 45.0 F. 36.0 F.
Wed Jan 19 01:08:05 2022 45.0 F. 36.0 F.
Wed Jan 19 02:08:05 2022 45.0 F. 36.0 F.
Wed Jan 19 03:08:05 2022 46.0 F. 36.0 F.
Wed Jan 19 04:08:04 2022 46.0 F. 36.0 F.
Wed Jan 19 05:08:05 2022 45.0 F. 36.0 F.
Wed Jan 19 06:08:05 2022 45.0 F. 36.0 F.
Wed Jan 19 07:08:05 2022 43.0 F. 36.0 F.
Wed Jan 19 08:08:05 2022 43.0 F. 36.0 F.
Wed Jan 19 09:08:04 2022 42.0 F. 35.1 F.
Wed Jan 19 10:08:04 2022 44.0 F. 36.0 F.
Wed Jan 19 11:08:05 2022 39.0 F. 32.0 F.
Wed Jan 19 12:08:04 2022 37.0 F. 28.9 F.
Wed Jan 19 13:08:04 2022 34.0 F. 24.1 F.
Wed Jan 19 14:08:05 2022 34.0 F. 24.1 F.
Wed Jan 19 15:08:04 2022 31.0 F. 23.0 F.
Wed Jan 19 16:08:05 2022 31.0 F. 23.0 F.
Wed Jan 19 17:08:04 2022 29.0 F. 19.9 F.
Wed Jan 19 18:08:05 2022 27.0 F. 18.0 F.
Wed Jan 19 19:08:05 2022 25.0 F. 16.0 F.
Wed Jan 19 20:08:05 2022 24.0 F. 15.1 F.
Wed Jan 19 21:08:05 2022 24.0 F. 15.1 F.
Wed Jan 19 22:08:04 2022 23.0 F. 14.0 F.
Wed Jan 19 23:08:05 2022 20.0 F. 10.9 F.
Thu Jan 20 00:08:04 2022 20.0 F. 10.9 F.
Thu Jan 20 01:08:05 2022 16.0 F. 8.1 F.
Thu Jan 20 02:08:05 2022 15.0 F. 7.0 F.
Thu Jan 20 03:08:04 2022 15.0 F. 7.0 F.
Thu Jan 20 04:08:04 2022 13.0 F. 6.1 F.
Thu Jan 20 05:08:05 2022 12.0 F. 6.1 F.
Thu Jan 20 06:08:05 2022 12.0 F. 6.1 F.
Thu Jan 20 07:08:05 2022 11.0 F. 5.0 F.
Thu Jan 20 08:08:04 2022 11.0 F. 5.0 F.
Thu Jan 20 09:08:05 2022 12.0 F. 5.0 F.
Thu Jan 20 10:08:05 2022 12.0 F. 5.0 F.
Thu Jan 20 11:08:05 2022 19.0 F. 7.0 F.
Thu Jan 20 12:08:05 2022 19.0 F. 7.0 F.
Thu Jan 20 13:08:05 2022 20.0 F. 7.0 F.
Thu Jan 20 14:08:04 2022 23.0 F. 8.1 F.
Thu Jan 20 15:08:04 2022 23.0 F. 8.1 F.
Thu Jan 20 16:08:04 2022 23.0 F. 8.1 F.
Thu Jan 20 17:08:04 2022 23.0 F. 8.1 F.
Thu Jan 20 18:08:05 2022 23.0 F. 8.1 F.
Thu Jan 20 19:08:04 2022 23.0 F. 8.1 F.
Thu Jan 20 20:08:04 2022 23.0 F. 8.1 F.
Thu Jan 20 21:08:04 2022 15.0 F. 8.1 F.
Thu Jan 20 22:08:04 2022 15.0 F. 8.1 F.
Thu Jan 20 23:08:05 2022 15.0 F. 8.1 F.
Fri Jan 21 00:08:05 2022 13.0 F. 7.0 F.
Fri Jan 21 01:08:04 2022 13.0 F. 7.0 F.
Fri Jan 21 02:08:04 2022 12.0 F. 7.0 F.
Fri Jan 21 03:08:05 2022 12.0 F. 7.0 F.
Fri Jan 21 04:08:05 2022 11.0 F. 7.0 F.
Fri Jan 21 05:08:05 2022 11.0 F. 7.0 F.
Fri Jan 21 06:08:05 2022 10.0 F. 7.0 F.
Fri Jan 21 07:08:04 2022 10.0 F. 6.1 F.
Fri Jan 21 08:08:05 2022 10.0 F. 7.0 F.
Fri Jan 21 09:08:05 2022 13.0 F. 9.0 F.
Fri Jan 21 10:08:04 2022 17.0 F. 10.0 F.
Fri Jan 21 11:08:05 2022 21.0 F. 12.0 F.
Fri Jan 21 12:08:05 2022 21.0 F. 12.0 F.
Fri Jan 21 13:08:04 2022 21.0 F. 12.0 F.
Fri Jan 21 14:08:05 2022 26.0 F. 10.9 F.
Fri Jan 21 15:08:04 2022 26.0 F. 10.9 F.
Fri Jan 21 16:08:04 2022 26.0 F. 10.9 F.
Fri Jan 21 17:08:05 2022 26.0 F. 10.0 F.
Fri Jan 21 18:08:05 2022 26.0 F. 10.0 F.
Fri Jan 21 19:08:05 2022 17.0 F. 10.9 F.
Fri Jan 21 20:08:04 2022 16.0 F. 10.0 F.
Fri Jan 21 21:08:04 2022 15.0 F. 10.9 F.
Fri Jan 21 22:08:04 2022 13.0 F. 10.0 F.
Fri Jan 21 23:08:05 2022 13.0 F. 9.0 F.
Sat Jan 22 00:08:05 2022 13.0 F. 10.0 F.
Sat Jan 22 01:08:05 2022 11.0 F. 8.1 F.
Sat Jan 22 02:08:04 2022 10.0 F. 8.1 F.
Sat Jan 22 03:08:05 2022 10.0 F. 7.0 F.
Sat Jan 22 04:08:04 2022 10.0 F. 7.0 F.